Time;durP1;ratioP1;P1;durP2;ratioP2;P2;SDS_P1;SDS_P2;PMS_P1;PMS_P2;Temp;Humidity;BMP_temperature;BMP_pressure;BME280_temperature;BME280_humidity;BME280_pressure;Samples;Min_cycle;Max_cycle;Signal;HPM_P1;HPM_P2
2021/11/29 00:01:54;;;;;;;14.70;8.02;;;15.10;41.60;;;;;;5035261;28;20018;-55
2021/11/29 00:04:20;;;;;;;;;;;15.10;41.60;;;;;;5035501;28;20045;-56
2021/11/29 00:06:46;;;;;;;15.90;7.28;;;15.10;41.60;;;;;;5035604;28;19906;-55
2021/11/29 00:09:13;;;;;;;12.73;7.40;;;15.10;41.70;;;;;;5035382;28;20028;-54
2021/11/29 00:11:39;;;;;;;17.83;7.78;;;15.10;41.70;;;;;;5034951;28;20087;-54
2021/11/29 00:14:06;;;;;;;10.88;6.82;;;15.10;41.80;;;;;;5035142;28;20022;-56
2021/11/29 00:16:31;;;;;;;12.13;6.95;;;15.00;41.80;;;;;;5035314;28;20022;-50
2021/11/29 00:18:57;;;;;;;12.07;6.65;;;15.00;41.80;;;;;;5036826;28;20013;-53
2021/11/29 00:21:24;;;;;;;12.05;6.28;;;15.10;41.80;;;;;;5035706;28;20090;-51
2021/11/29 00:23:50;;;;;;;12.70;6.03;;;15.10;41.70;;;;;;5037301;28;20072;-53
2021/11/29 00:26:19;;;;;;;10.65;5.65;;;15.10;41.60;;;;;;5039224;28;20548;-53
2021/11/29 00:28:45;;;;;;;12.10;5.95;;;15.10;41.60;;;;;;5039112;28;20017;-53
2021/11/29 00:31:11;;;;;;;9.60;5.75;;;15.10;41.70;;;;;;5021140;28;20474;-53
2021/11/29 00:33:37;;;;;;;9.13;5.25;;;15.10;41.70;;;;;;5039295;28;20010;-53
2021/11/29 00:36:03;;;;;;;8.38;5.07;;;15.10;41.70;;;;;;5021125;28;20433;-52
2021/11/29 00:38:29;;;;;;;9.10;4.78;;;15.10;41.70;;;;;;5038806;28;20022;-53
2021/11/29 00:40:57;;;;;;;8.43;4.07;;;15.10;41.70;;;;;;5037796;28;20101;-53
2021/11/29 00:43:23;;;;;;;10.88;4.88;;;15.10;41.70;;;;;;5038163;28;20052;-50
2021/11/29 00:45:50;;;;;;;7.07;3.85;;;15.10;41.70;;;;;;5038654;28;20021;-53
2021/11/29 00:48:15;;;;;;;5.80;3.63;;;15.10;41.60;;;;;;5020137;28;20018;-53
2021/11/29 00:50:41;;;;;;;7.43;3.80;;;15.10;41.70;;;;;;5038413;28;20478;-52
2021/11/29 00:53:08;;;;;;;8.68;4.05;;;15.10;41.70;;;;;;5038443;28;20049;-51
2021/11/29 00:55:34;;;;;;;6.38;3.60;;;15.10;41.70;;;;;;5038131;28;20462;-52
2021/11/29 00:58:00;;;;;;;7.95;3.72;;;15.10;41.80;;;;;;5020639;28;20010;-52
2021/11/29 01:00:27;;;;;;;4.85;3.17;;;15.10;41.80;;;;;;5037824;28;20018;-53
2021/11/29 01:02:53;;;;;;;6.32;3.42;;;15.10;41.90;;;;;;5038803;28;20037;-52
2021/11/29 01:05:19;;;;;;;5.13;2.90;;;15.10;41.90;;;;;;5038830;28;20052;-52
2021/11/29 01:07:45;;;;;;;4.82;3.00;;;15.10;41.90;;;;;;5039066;28;20466;-58
2021/11/29 01:10:11;;;;;;;4.65;2.80;;;15.10;41.80;;;;;;5039281;28;20022;-56
2021/11/29 01:12:37;;;;;;;4.88;2.70;;;15.10;41.70;;;;;;5039789;28;20021;-56
2021/11/29 01:15:04;;;;;;;6.63;2.88;;;15.10;41.70;;;;;;5022276;28;20100;-58
2021/11/29 01:17:30;;;;;;;5.28;3.45;;;15.10;41.70;;;;;;5038379;28;20014;-56
2021/11/29 01:19:57;;;;;;;4.93;2.72;;;15.10;41.70;;;;;;5037440;28;20022;-57
2021/11/29 01:22:23;;;;;;;3.85;2.42;;;15.10;41.70;;;;;;5037687;28;20036;-56
2021/11/29 01:24:49;;;;;;;5.13;2.88;;;15.10;41.80;;;;;;5037640;28;20386;-57
2021/11/29 01:27:16;;;;;;;4.40;2.60;;;15.10;41.80;;;;;;5037141;28;20028;-54
2021/11/29 01:29:42;;;;;;;4.82;2.70;;;15.10;41.70;;;;;;5019477;28;20022;-54
2021/11/29 01:32:08;;;;;;;4.20;2.70;;;15.10;41.80;;;;;;5018047;28;20021;-54
2021/11/29 01:34:34;;;;;;;4.60;2.67;;;15.10;41.70;;;;;;5017457;28;20025;-54
2021/11/29 01:37:01;;;;;;;4.43;2.80;;;15.10;41.80;;;;;;5034811;28;20018;-52
2021/11/29 01:39:27;;;;;;;5.22;2.30;;;15.10;41.80;;;;;;5035087;28;20021;-53
2021/11/29 01:41:53;;;;;;;3.78;2.45;;;15.10;41.80;;;;;;5034753;28;20040;-54
2021/11/29 01:44:19;;;;;;;4.55;2.20;;;15.10;41.80;;;;;;5034320;28;20435;-51
2021/11/29 01:46:45;;;;;;;3.30;2.13;;;15.10;41.70;;;;;;5016371;28;20104;-54
2021/11/29 01:49:11;;;;;;;2.90;2.10;;;15.10;41.80;;;;;;5033459;28;20052;-55
2021/11/29 01:51:37;;;;;;;2.47;1.90;;;15.10;41.70;;;;;;5033181;28;20033;-56
2021/11/29 01:54:04;;;;;;;3.85;2.33;;;15.10;41.80;;;;;;5033537;28;20079;-54
2021/11/29 01:56:30;;;;;;;3.13;2.05;;;15.00;41.70;;;;;;5016090;28;20450;-54
2021/11/29 01:58:56;;;;;;;3.38;2.10;;;15.10;41.70;;;;;;5033235;28;20040;-54
2021/11/29 02:01:23;;;;;;;4.45;2.30;;;15.10;41.70;;;;;;5033549;28;20100;-50
2021/11/29 02:03:53;;;;;;;3.83;2.28;;;15.10;41.70;;;;;;5034172;28;20017;-50
2021/11/29 02:06:19;;;;;;;2.58;1.95;;;15.10;41.60;;;;;;5016794;28;20113;-51
2021/11/29 02:08:45;;;;;;;3.15;1.80;;;15.10;41.60;;;;;;5033984;28;20017;-53
2021/11/29 02:11:11;;;;;;;3.40;1.70;;;15.10;41.60;;;;;;5016367;28;20076;-51
2021/11/29 02:13:37;;;;;;;3.25;1.55;;;15.10;41.60;;;;;;5034199;28;20500;-49
2021/11/29 02:16:03;;;;;;;3.47;1.70;;;15.10;41.60;;;;;;5034298;28;20014;-52
2021/11/29 02:18:32;;;;;;;2.10;1.42;;;15.10;41.50;;;;;;5033936;28;20025;-52
2021/11/29 02:21:14;;;;;;;3.28;1.63;;;15.10;41.60;;;;;;5033578;28;20053;-50
2021/11/29 02:23:44;;;;;;;3.05;1.60;;;15.10;41.60;;;;;;5033580;28;20492;-52
2021/11/29 02:26:10;;;;;;;2.20;1.60;;;15.10;41.60;;;;;;5033711;28;20032;-53
2021/11/29 02:28:38;;;;;;;2.20;1.63;;;15.10;41.50;;;;;;5033735;28;20024;-53
2021/11/29 02:31:12;;;;;;;1.73;1.30;;;15.20;41.60;;;;;;5033453;28;20021;-53
2021/11/29 02:33:38;;;;;;;2.28;1.15;;;15.10;41.50;;;;;;5033784;28;20018;-53
2021/11/29 02:36:05;;;;;;;2.78;1.35;;;15.20;42.10;;;;;;5034965;28;20083;-53
2021/11/29 02:38:31;;;;;;;2.20;1.27;;;15.20;41.60;;;;;;5034021;28;20018;-54
2021/11/29 02:41:00;;;;;;;3.03;1.38;;;15.10;41.50;;;;;;5033522;28;20025;-52
2021/11/29 02:43:25;;;;;;;1.70;1.20;;;15.20;41.60;;;;;;5015299;28;20018;-53
2021/11/29 02:45:51;;;;;;;2.28;1.10;;;15.10;42.10;;;;;;5001435;28;20083;-53
2021/11/29 02:48:17;;;;;;;2.45;1.45;;;15.10;41.50;;;;;;5037778;28;20385;-52
2021/11/29 02:50:43;;;;;;;1.67;1.05;;;15.10;41.50;;;;;;5036966;28;20026;-53
2021/11/29 02:53:10;;;;;;;2.67;1.40;;;15.10;41.60;;;;;;5019530;28;20022;-54
2021/11/29 02:55:39;;;;;;;1.48;1.00;;;15.10;41.50;;;;;;5037128;28;20014;-52
2021/11/29 02:58:06;;;;;;;3.05;1.33;;;15.10;41.50;;;;;;5037357;28;20014;-53
2021/11/29 03:00:38;;;;;;;1.83;1.00;;;15.10;41.50;;;;;;5036992;28;20018;-52
2021/11/29 03:03:04;;;;;;;3.35;1.08;;;15.10;41.50;;;;;;5037258;28;20083;-53
2021/11/29 03:05:31;;;;;;;3.80;1.13;;;15.10;41.60;;;;;;5036913;28;20128;-53
2021/11/29 03:07:56;;;;;;;1.58;0.95;;;15.00;41.50;;;;;;5036825;28;20022;-52
2021/11/29 03:10:22;;;;;;;2.10;1.02;;;15.10;41.60;;;;;;5019218;28;20117;-53
2021/11/29 03:12:48;;;;;;;1.88;1.10;;;15.00;41.50;;;;;;5019441;28;20014;-53
2021/11/29 03:15:13;;;;;;;2.40;0.98;;;15.00;41.40;;;;;;5037628;28;20033;-51
2021/11/29 03:17:39;;;;;;;1.55;1.00;;;15.00;41.50;;;;;;5019718;28;20026;-54
2021/11/29 03:20:10;;;;;;;2.03;0.95;;;15.00;41.50;;;;;;5037459;28;20469;-54
2021/11/29 03:22:36;;;;;;;1.85;1.00;;;15.00;41.50;;;;;;5036806;28;20020;-53
2021/11/29 03:25:02;;;;;;;3.28;1.45;;;15.00;41.50;;;;;;5036919;28;20452;-54
2021/11/29 03:27:28;;;;;;;1.65;1.00;;;15.00;41.50;;;;;;5036640;28;20021;-54
2021/11/29 03:29:53;;;;;;;1.65;0.95;;;15.00;41.70;;;;;;5036143;28;20378;-54
2021/11/29 03:32:20;;;;;;;1.52;0.98;;;15.00;41.40;;;;;;5018316;28;20402;-53
2021/11/29 03:34:46;;;;;;;1.60;1.00;;;15.00;41.40;;;;;;5002384;28;20466;-54
2021/11/29 03:37:13;;;;;;;1.52;0.95;;;15.00;42.00;;;;;;5035977;28;20484;-55
2021/11/29 03:39:39;;;;;;;2.13;1.05;;;15.00;41.40;;;;;;5018035;28;20009;-53
2021/11/29 03:42:05;;;;;;;0.95;0.68;;;15.10;41.40;;;;;;5035587;28;20025;-56
2021/11/29 03:44:32;;;;;;;1.90;0.95;;;15.00;41.40;;;;;;5018591;28;20017;-55
2021/11/29 03:46:58;;;;;;;1.13;0.70;;;15.10;41.30;;;;;;5035724;28;20426;-55
2021/11/29 03:49:24;;;;;;;2.25;0.77;;;15.00;41.40;;;;;;5035825;28;20111;-53
2021/11/29 03:51:51;;;;;;;1.50;0.77;;;15.00;41.40;;;;;;5036000;28;20026;-54
2021/11/29 03:54:17;;;;;;;3.78;0.95;;;15.00;41.40;;;;;;5036655;28;20028;-54
2021/11/29 03:56:43;;;;;;;1.33;0.63;;;15.10;41.40;;;;;;5035885;28;20032;-54
2021/11/29 03:59:10;;;;;;;2.03;0.70;;;15.10;41.40;;;;;;5018401;28;20053;-53
2021/11/29 04:01:36;;;;;;;1.23;0.70;;;15.10;41.30;;;;;;5035799;28;20512;-51
2021/11/29 04:04:02;;;;;;;1.30;0.70;;;15.10;41.30;;;;;;5017991;28;20084;-56
2021/11/29 04:06:28;;;;;;;2.70;0.85;;;15.00;41.30;;;;;;5036150;28;20025;-53
2021/11/29 04:08:54;;;;;;;1.48;0.80;;;15.10;41.30;;;;;;5019023;28;20076;-56
2021/11/29 04:11:20;;;;;;;2.35;0.73;;;15.10;41.30;;;;;;5036242;28;20385;-54
2021/11/29 04:13:46;;;;;;;1.45;0.70;;;15.10;41.20;;;;;;5018695;28;20022;-54
2021/11/29 04:16:15;;;;;;;1.75;0.73;;;15.10;41.00;;;;;;5036408;28;20089;-57
2021/11/29 04:18:41;;;;;;;1.10;0.63;;;15.20;41.00;;;;;;5019241;28;20018;-54
2021/11/29 04:21:07;;;;;;;2.13;0.80;;;15.20;40.80;;;;;;5035979;28;20018;-54
2021/11/29 04:23:33;;;;;;;1.08;0.77;;;15.30;40.80;;;;;;5035834;28;20053;-54
2021/11/29 04:26:01;;;;;;;0.95;0.70;;;15.30;40.70;;;;;;5036148;28;20057;-54
2021/11/29 04:28:27;;;;;;;2.05;0.88;;;15.30;40.60;;;;;;5035739;28;20020;-56
2021/11/29 04:30:53;;;;;;;1.27;0.68;;;15.40;40.60;;;;;;5035885;28;20022;-55
2021/11/29 04:33:20;;;;;;;1.45;0.70;;;15.40;40.40;;;;;;5036439;28;20456;-55
2021/11/29 04:35:46;;;;;;;1.25;0.63;;;15.40;40.50;;;;;;5036518;28;20097;-54
2021/11/29 04:38:12;;;;;;;2.70;0.90;;;15.30;40.60;;;;;;5036495;28;20021;-54
2021/11/29 04:40:38;;;;;;;2.25;0.70;;;15.20;40.70;;;;;;5036402;28;20017;-56
2021/11/29 04:43:06;;;;;;;1.75;0.70;;;15.30;40.70;;;;;;5036592;28;20022;-54
2021/11/29 04:45:31;;;;;;;2.38;1.00;;;15.40;40.70;;;;;;5036121;28;20087;-54
2021/11/29 04:47:57;;;;;;;1.60;0.60;;;15.40;40.60;;;;;;5035190;28;20018;-57
2021/11/29 04:50:23;;;;;;;1.35;0.73;;;15.50;40.50;;;;;;5035191;28;20025;-56
2021/11/29 04:52:49;;;;;;;1.88;0.80;;;15.50;40.50;;;;;;5017556;28;20013;-55
2021/11/29 04:55:15;;;;;;;1.60;0.57;;;15.50;40.30;;;;;;5017291;28;20010;-56
2021/11/29 04:57:41;;;;;;;3.22;0.85;;;15.60;40.30;;;;;;5034831;28;20009;-54
2021/11/29 05:00:08;;;;;;;1.65;0.90;;;15.70;40.20;;;;;;5035350;28;20037;-55
2021/11/29 05:02:35;;;;;;;1.67;0.75;;;15.70;40.10;;;;;;5036933;28;20116;-56
2021/11/29 05:05:01;;;;;;;2.38;0.90;;;15.80;40.00;;;;;;5036514;28;20049;-53
2021/11/29 05:07:28;;;;;;;1.15;0.70;;;15.80;39.90;;;;;;5035144;28;20033;-54
2021/11/29 05:09:54;;;;;;;1.50;0.80;;;15.90;39.90;;;;;;5034888;28;20026;-56
2021/11/29 05:12:21;;;;;;;0.60;0.60;;;15.90;39.80;;;;;;5017553;28;20017;-57
2021/11/29 05:14:47;;;;;;;1.05;0.68;;;16.00;39.80;;;;;;5034785;28;20113;-57
2021/11/29 05:17:14;;;;;;;0.90;0.60;;;16.00;39.60;;;;;;5034458;28;20009;-55
2021/11/29 05:19:40;;;;;;;1.23;0.80;;;16.00;39.60;;;;;;5034545;28;20012;-57
2021/11/29 05:22:07;;;;;;;3.13;1.00;;;16.10;39.50;;;;;;5016975;28;20104;-56
2021/11/29 05:24:33;;;;;;;1.75;0.82;;;16.20;39.40;;;;;;5034574;28;20021;-55
2021/11/29 05:26:59;;;;;;;3.50;0.90;;;16.20;39.40;;;;;;5034290;28;20018;-54
2021/11/29 05:29:25;;;;;;;3.78;0.80;;;16.10;39.40;;;;;;5034573;28;20097;-55
2021/11/29 05:31:51;;;;;;;1.85;0.90;;;16.10;39.40;;;;;;5016793;28;20113;-55
2021/11/29 05:34:18;;;;;;;2.40;0.80;;;16.10;39.40;;;;;;5016997;28;20028;-54
2021/11/29 05:36:44;;;;;;;0.98;0.60;;;16.20;39.40;;;;;;5017550;28;20040;-53
2021/11/29 05:39:10;;;;;;;2.35;0.82;;;16.20;39.40;;;;;;5034649;28;20084;-55
2021/11/29 05:41:36;;;;;;;1.15;0.70;;;16.20;39.30;;;;;;5034665;28;20010;-52
2021/11/29 05:44:03;;;;;;;1.75;0.70;;;16.20;39.20;;;;;;5001017;28;20056;-53
2021/11/29 05:46:28;;;;;;;0.70;0.60;;;16.20;39.30;;;;;;5034999;28;20017;-54
2021/11/29 05:48:56;;;;;;;0.93;0.57;;;16.30;39.80;;;;;;5035119;28;20037;-54
2021/11/29 05:51:23;;;;;;;0.88;0.50;;;16.20;39.10;;;;;;5034846;28;20021;-54
2021/11/29 05:53:49;;;;;;;2.33;0.80;;;16.30;39.00;;;;;;5034750;28;20012;-52
2021/11/29 05:56:15;;;;;;;1.33;0.63;;;16.30;39.00;;;;;;5034479;28;20126;-52
2021/11/29 05:58:41;;;;;;;1.95;0.63;;;16.30;38.90;;;;;;5016667;28;20027;-53
2021/11/29 06:01:07;;;;;;;1.17;0.60;;;16.30;38.90;;;;;;5034631;28;20052;-55
2021/11/29 06:03:34;;;;;;;2.28;0.60;;;16.30;38.90;;;;;;5037258;28;20031;-52
2021/11/29 06:06:00;;;;;;;1.88;0.73;;;16.30;38.90;;;;;;5020633;28;20588;-54
2021/11/29 06:08:27;;;;;;;1.42;0.50;;;16.30;38.80;;;;;;5020925;28;20037;-53
2021/11/29 06:10:52;;;;;;;1.60;0.70;;;16.30;38.80;;;;;;5038808;28;20033;-55
2021/11/29 06:13:18;;;;;;;2.67;0.60;;;16.20;38.90;;;;;;5037656;28;20021;-53
2021/11/29 06:15:44;;;;;;;1.20;0.50;;;16.20;38.90;;;;;;5002845;28;20470;-53
2021/11/29 06:18:10;;;;;;;2.60;0.63;;;16.20;38.80;;;;;;5017383;28;20045;-54
2021/11/29 06:20:36;;;;;;;1.05;0.65;;;16.30;38.70;;;;;;5034507;28;20033;-53
2021/11/29 06:23:02;;;;;;;1.50;0.70;;;16.30;38.70;;;;;;5035316;28;20109;-55
2021/11/29 06:25:28;;;;;;;0.88;0.57;;;16.20;38.80;;;;;;5034794;28;20172;-53
2021/11/29 06:27:55;;;;;;;2.40;0.63;;;16.20;38.80;;;;;;5017306;28;20025;-52
2021/11/29 06:30:21;;;;;;;1.30;0.70;;;16.20;38.80;;;;;;5033803;28;20021;-52
2021/11/29 06:32:47;;;;;;;1.73;0.60;;;16.20;38.80;;;;;;5035149;28;20016;-52
2021/11/29 06:35:13;;;;;;;1.40;0.60;;;16.20;38.80;;;;;;5034853;28;20025;-52
2021/11/29 06:37:40;;;;;;;2.47;0.77;;;16.10;38.70;;;;;;5035311;28;20020;-54
2021/11/29 06:40:06;;;;;;;1.58;0.65;;;16.10;38.80;;;;;;5017146;28;20100;-54
2021/11/29 06:42:32;;;;;;;0.98;0.68;;;16.10;38.80;;;;;;5034776;28;20120;-50
2021/11/29 06:44:58;;;;;;;0.80;0.47;;;16.10;38.80;;;;;;5016488;28;20026;-52
2021/11/29 06:47:24;;;;;;;0.77;0.50;;;16.10;38.80;;;;;;5016553;28;20029;-54
2021/11/29 06:49:50;;;;;;;1.42;0.68;;;16.10;38.80;;;;;;5000681;28;20025;-54
2021/11/29 06:52:16;;;;;;;3.78;0.60;;;16.20;38.60;;;;;;5034705;28;20063;-57
2021/11/29 06:54:43;;;;;;;0.90;0.60;;;16.30;38.40;;;;;;5033613;28;20091;-56
2021/11/29 06:57:09;;;;;;;3.10;0.70;;;16.30;38.30;;;;;;5033232;28;20494;-55
2021/11/29 06:59:36;;;;;;;1.63;0.60;;;16.40;38.30;;;;;;5015208;28;20013;-56
2021/11/29 07:02:03;;;;;;;1.40;0.68;;;16.40;38.30;;;;;;5032577;28;20418;-55
2021/11/29 07:04:30;;;;;;;1.40;0.60;;;16.10;38.50;;;;;;5032119;28;20481;-54
2021/11/29 07:06:58;;;;;;;1.75;0.70;;;16.00;38.70;;;;;;5032501;28;20081;-43
2021/11/29 07:09:24;;;;;;;1.40;0.80;;;16.00;38.80;;;;;;5032315;28;20056;-45
2021/11/29 07:11:50;;;;;;;1.55;0.90;;;16.00;38.80;;;;;;5014823;28;20057;-43
2021/11/29 07:14:16;;;;;;;1.10;0.80;;;16.10;38.80;;;;;;5032524;28;20085;-44
2021/11/29 07:16:47;;;;;;;3.75;1.00;;;16.10;38.80;;;;;;5014788;28;20458;-44
2021/11/29 07:19:22;;;;;;;1.88;0.77;;;16.20;38.60;;;;;;4997852;28;20018;-44
2021/11/29 07:21:50;;;;;;;4.80;1.05;;;16.20;39.00;;;;;;4998466;28;20025;-46
2021/11/29 07:24:16;;;;;;;9.63;1.50;;;15.90;39.80;;;;;;5013189;28;20083;-45
2021/11/29 07:26:45;;;;;;;9.95;1.65;;;15.50;41.20;;;;;;5031393;28;20026;-46
2021/11/29 07:29:14;;;;;;;9.30;1.90;;;14.90;42.40;;;;;;5031421;28;20101;-46
2021/11/29 07:31:40;;;;;;;8.90;2.30;;;14.30;44.00;;;;;;5033677;28;20022;-45
2021/11/29 07:34:06;;;;;;;5.53;2.50;;;13.90;44.90;;;;;;5035350;28;20478;-46
2021/11/29 07:36:32;;;;;;;2.85;1.65;;;13.60;45.50;;;;;;5018132;28;20020;-47
2021/11/29 07:38:58;;;;;;;3.78;1.27;;;13.30;46.00;;;;;;5035538;28;20026;-45
2021/11/29 07:41:24;;;;;;;5.57;1.58;;;13.10;46.70;;;;;;5018159;28;20072;-47
2021/11/29 07:43:50;;;;;;;5.07;1.27;;;12.90;47.30;;;;;;5035936;28;20029;-45
2021/11/29 07:46:17;;;;;;;3.22;1.17;;;12.50;47.60;;;;;;5035681;28;20398;-45
2021/11/29 07:48:43;;;;;;;2.67;1.08;;;12.20;48.30;;;;;;5035587;28;20031;-48
2021/11/29 07:51:09;;;;;;;4.53;1.27;;;11.90;49.00;;;;;;5035309;28;20357;-42
2021/11/29 07:53:37;;;;;;;3.95;1.30;;;11.80;49.60;;;;;;5017637;28;20421;-47
2021/11/29 07:56:03;;;;;;;5.35;1.25;;;11.70;50.20;;;;;;5035177;28;20093;-45
2021/11/29 07:58:29;;;;;;;3.72;1.60;;;11.80;50.40;;;;;;5017169;28;20025;-44
2021/11/29 08:00:55;;;;;;;2.28;1.00;;;12.10;49.70;;;;;;5034810;28;20033;-43
2021/11/29 08:03:21;;;;;;;2.33;0.82;;;12.40;49.30;;;;;;5034153;28;20049;-44
2021/11/29 08:05:47;;;;;;;3.10;1.00;;;12.50;48.50;;;;;;5016098;28;20050;-48
2021/11/29 08:08:14;;;;;;;4.68;1.35;;;12.10;48.60;;;;;;5017275;28;20346;-46
2021/11/29 08:10:39;;;;;;;4.55;1.20;;;11.80;49.80;;;;;;5016990;28;20029;-48
2021/11/29 08:13:08;;;;;;;6.60;1.60;;;11.50;50.60;;;;;;5033785;28;20489;-48
2021/11/29 08:15:36;;;;;;;5.97;1.80;;;11.50;51.10;;;;;;5015905;28;20052;-45
2021/11/29 08:18:04;;;;;;;4.72;1.83;;;11.70;51.80;;;;;;5033536;28;20037;-45
2021/11/29 08:20:32;;;;;;;6.43;1.60;;;12.10;50.40;;;;;;5015405;28;20426;-46
2021/11/29 08:22:58;;;;;;;12.80;1.20;;;12.60;49.30;;;;;;5033501;28;20013;-49
2021/11/29 08:25:24;;;;;;;5.30;1.42;;;13.00;48.30;;;;;;5033605;28;20057;-49
2021/11/29 08:27:51;;;;;;;8.25;1.58;;;13.30;47.30;;;;;;5016204;28;20095;-49
2021/11/29 08:30:18;;;;;;;6.18;1.95;;;13.40;47.00;;;;;;5015541;28;20056;-48
2021/11/29 08:32:45;;;;;;;9.63;2.30;;;13.50;46.60;;;;;;5015955;28;20108;-46
2021/11/29 08:35:13;;;;;;;6.88;1.70;;;13.70;46.90;;;;;;5015583;28;20014;-50
2021/11/29 08:37:46;;;;;;;4.10;1.00;;;13.70;45.80;;;;;;5000063;28;20020;-53
2021/11/29 08:40:13;;;;;;;5.13;1.10;;;13.80;46.00;;;;;;5017108;28;20504;-46
2021/11/29 08:42:39;;;;;;;2.72;1.38;;;13.90;45.50;;;;;;5014845;28;20064;-49
2021/11/29 08:45:05;;;;;;;4.88;1.20;;;13.90;45.40;;;;;;5034196;28;20021;-45
2021/11/29 08:47:31;;;;;;;11.60;1.63;;;14.00;45.20;;;;;;5015985;28;20060;-46
2021/11/29 08:49:57;;;;;;;3.88;1.20;;;14.10;45.10;;;;;;5016078;28;20045;-44
2021/11/29 08:52:25;;;;;;;3.65;1.27;;;14.00;45.40;;;;;;5033614;28;20010;-48
2021/11/29 08:54:51;;;;;;;1.75;1.10;;;14.10;45.20;;;;;;5016251;28;20091;-44
2021/11/29 08:57:17;;;;;;;3.63;1.38;;;14.10;44.90;;;;;;5033483;28;20483;-44
2021/11/29 08:59:43;;;;;;;4.60;1.33;;;14.10;44.80;;;;;;5033717;28;20053;-46
2021/11/29 09:02:09;;;;;;;2.20;1.25;;;14.00;44.90;;;;;;5015577;28;20116;-45
2021/11/29 09:04:35;;;;;;;3.90;1.20;;;14.00;45.20;;;;;;5000296;28;20499;-45
2021/11/29 09:07:02;;;;;;;3.25;1.15;;;14.10;45.20;;;;;;5034193;28;20025;-45
2021/11/29 09:09:31;;;;;;;4.93;1.15;;;14.10;44.80;;;;;;4999996;28;20045;-47
2021/11/29 09:11:58;;;;;;;4.50;0.98;;;14.20;44.40;;;;;;5033484;28;20158;-46
2021/11/29 09:14:24;;;;;;;4.22;1.00;;;14.20;44.60;;;;;;5015376;28;20036;-45
2021/11/29 09:16:50;;;;;;;4.80;1.33;;;14.30;43.80;;;;;;5015607;28;20331;-47
2021/11/29 09:19:16;;;;;;;6.72;1.30;;;14.30;43.70;;;;;;5033312;28;20123;-45
2021/11/29 09:21:42;;;;;;;3.60;1.38;;;14.40;44.00;;;;;;5015380;28;20017;-45
2021/11/29 09:24:08;;;;;;;5.65;1.08;;;14.50;44.80;;;;;;5016004;28;20376;-47
2021/11/29 09:26:34;;;;;;;5.53;1.20;;;14.60;44.40;;;;;;5033429;28;20031;-44
2021/11/29 09:29:03;;;;;;;6.90;1.40;;;14.50;44.40;;;;;;5033676;28;20028;-42
2021/11/29 09:31:29;;;;;;;3.13;1.60;;;14.50;44.60;;;;;;5033526;28;20084;-44
2021/11/29 09:33:55;;;;;;;2.50;1.50;;;14.60;44.30;;;;;;5033342;28;20069;-44
2021/11/29 09:36:21;;;;;;;4.55;1.10;;;14.70;44.30;;;;;;5014882;28;20097;-46
2021/11/29 09:38:47;;;;;;;2.22;1.30;;;14.80;44.00;;;;;;5015266;28;20009;-44
2021/11/29 09:41:15;;;;;;;5.22;1.50;;;15.00;43.90;;;;;;5014784;28;20386;-44
2021/11/29 09:43:41;;;;;;;3.40;1.50;;;15.10;43.50;;;;;;5014986;28;20029;-44
2021/11/29 09:46:08;;;;;;;7.18;1.40;;;15.20;43.40;;;;;;5033287;28;20014;-45
2021/11/29 09:48:35;;;;;;;5.10;1.35;;;15.20;43.60;;;;;;5015515;28;20071;-50
2021/11/29 09:51:01;;;;;;;3.03;1.60;;;15.20;43.40;;;;;;5032910;28;20031;-45
2021/11/29 09:53:30;;;;;;;5.68;1.48;;;15.20;43.40;;;;;;5014976;28;20014;-43
2021/11/29 09:55:57;;;;;;;2.45;1.33;;;15.20;43.60;;;;;;5032594;28;20006;-43
2021/11/29 09:58:23;;;;;;;3.25;1.42;;;15.10;43.60;;;;;;5032923;28;20018;-43
2021/11/29 10:00:51;;;;;;;3.42;1.30;;;15.20;43.60;;;;;;5014688;28;20069;-43
2021/11/29 10:03:17;;;;;;;3.55;1.35;;;15.10;43.90;;;;;;5032413;28;20017;-45
2021/11/29 10:05:43;;;;;;;7.22;1.80;;;15.00;44.10;;;;;;5015111;28;20080;-43
2021/11/29 10:08:34;;;;;;;9.05;1.70;;;14.70;44.50;;;;;;5033575;28;20009;-43
2021/11/29 10:11:06;;;;;;;6.82;1.80;;;14.70;44.80;;;;;;5014908;28;20026;-51
2021/11/29 10:14:10;;;;;;;4.72;1.58;;;14.70;45.30;;;;;;5032840;28;20017;-44
2021/11/29 10:16:43;;;;;;;7.05;1.95;;;15.10;44.70;;;;;;5032735;28;20466;-42
2021/11/29 10:19:24;;;;;;;8.95;1.75;;;15.60;44.50;;;;;;5015489;28;20025;-43
2021/11/29 10:21:52;;;;;;;5.68;1.38;;;16.00;44.30;;;;;;5015196;28;20328;-43
2021/11/29 10:24:22;;;;;;;5.50;1.55;;;16.50;44.30;;;;;;5015511;28;20014;-44
2021/11/29 10:26:52;;;;;;;8.65;2.08;;;17.00;43.90;;;;;;5033130;28;20096;-47
2021/11/29 10:29:18;;;;;;;10.23;2.03;;;17.40;43.60;;;;;;5014862;28;20014;-48
2021/11/29 10:31:48;;;;;;;14.75;2.17;;;17.70;43.20;;;;;;5032569;28;20284;-51
2021/11/29 10:34:26;;;;;;;6.43;1.40;;;18.00;43.10;;;;;;5032366;28;20028;-48
2021/11/29 10:36:54;;;;;;;6.95;2.08;;;18.30;42.70;;;;;;5032160;28;20017;-49
2021/11/29 10:39:22;;;;;;;6.63;1.55;;;18.60;42.40;;;;;;5031468;28;20032;-51
2021/11/29 10:41:50;;;;;;;11.27;1.67;;;18.90;42.20;;;;;;5013622;28;20359;-51
2021/11/29 10:44:18;;;;;;;8.27;1.80;;;19.20;42.10;;;;;;5031796;28;20021;-50
2021/11/29 10:46:52;;;;;;;5.90;1.65;;;19.40;42.00;;;;;;5032301;28;20025;-51
2021/11/29 10:49:20;;;;;;;3.80;1.58;;;19.60;41.90;;;;;;5032403;28;20048;-49
2021/11/29 10:51:50;;;;;;;10.57;1.92;;;19.70;41.90;;;;;;5031797;28;20117;-49
2021/11/29 10:54:21;;;;;;;9.07;1.95;;;19.90;41.90;;;;;;5032373;28;20052;-50
2021/11/29 10:56:46;;;;;;;15.55;2.47;;;20.10;41.90;;;;;;5032178;28;20026;-51
2021/11/29 10:59:17;;;;;;;13.93;2.17;;;20.30;42.10;;;;;;5032237;28;20046;-51
2021/11/29 11:01:49;;;;;;;29.63;3.90;;;20.20;41.80;;;;;;5031302;28;20113;-49
2021/11/29 11:04:20;;;;;;;58.88;5.15;;;20.10;41.30;;;;;;5032556;28;20049;-51
2021/11/29 11:06:48;;;;;;;27.50;3.63;;;20.00;41.10;;;;;;5034963;28;20029;-52
2021/11/29 11:09:20;;;;;;;22.90;3.47;;;20.00;41.20;;;;;;5036771;28;20029;-52
2021/11/29 11:11:49;;;;;;;29.30;3.78;;;20.00;41.20;;;;;;5036205;28;20021;-51
2021/11/29 11:14:17;;;;;;;24.33;3.28;;;20.00;41.20;;;;;;5035903;28;20474;-53
2021/11/29 11:16:54;;;;;;;22.48;3.40;;;20.00;41.10;;;;;;5035995;28;20009;-53
2021/11/29 11:19:27;;;;;;;22.65;3.40;;;20.00;41.20;;;;;;5036821;28;20115;-49
2021/11/29 11:21:57;;;;;;;26.60;3.42;;;20.00;41.10;;;;;;5036475;28;20020;-51
2021/11/29 11:24:31;;;;;;;19.08;2.90;;;20.00;41.00;;;;;;5035514;28;20036;-53
2021/11/29 11:27:02;;;;;;;22.88;3.17;;;20.00;41.00;;;;;;5017671;28;20033;-49
2021/11/29 11:29:36;;;;;;;18.27;3.72;;;20.10;40.90;;;;;;5017324;28;20484;-51
2021/11/29 11:32:09;;;;;;;19.00;3.70;;;20.00;40.60;;;;;;5034970;28;20393;-51
2021/11/29 11:34:35;;;;;;;12.27;3.20;;;19.00;39.20;;;;;;5016477;28;20018;-51
2021/11/29 11:37:01;;;;;;;12.48;3.15;;;18.00;39.40;;;;;;5016638;28;20078;-53
2021/11/29 11:39:27;;;;;;;9.38;3.25;;;17.40;40.30;;;;;;5035047;28;20500;-52
2021/11/29 11:41:54;;;;;;;10.48;3.05;;;16.90;40.40;;;;;;5017803;28;20013;-52
2021/11/29 11:44:20;;;;;;;10.18;3.17;;;16.60;40.70;;;;;;5035096;28;20014;-51
2021/11/29 11:46:46;;;;;;;10.25;2.67;;;16.20;41.00;;;;;;5016433;28;20022;-52
2021/11/29 11:49:12;;;;;;;9.90;2.78;;;16.00;41.70;;;;;;5015946;28;20091;-52
2021/11/29 11:51:39;;;;;;;7.40;2.97;;;15.80;42.50;;;;;;5000203;28;20041;-51
2021/11/29 11:54:04;;;;;;;10.13;3.03;;;15.60;42.80;;;;;;5016874;28;20069;-49
2021/11/29 11:56:30;;;;;;;8.45;2.65;;;15.20;43.90;;;;;;5016604;28;20441;-48
2021/11/29 11:59:02;;;;;;;10.40;3.03;;;15.10;44.20;;;;;;5016001;28;20063;-50
2021/11/29 12:01:29;;;;;;;9.02;3.47;;;15.10;44.50;;;;;;5016194;28;20025;-49
2021/11/29 12:03:55;;;;;;;14.60;3.83;;;15.00;44.80;;;;;;4998718;28;20029;-48
2021/11/29 12:06:20;;;;;;;12.32;4.03;;;14.90;45.20;;;;;;5033584;28;20032;-51
2021/11/29 12:08:50;;;;;;;11.10;3.67;;;14.80;45.40;;;;;;5015174;28;20379;-47
2021/11/29 12:11:23;;;;;;;11.77;3.17;;;14.60;46.30;;;;;;5031726;28;20037;-55
2021/11/29 12:13:50;;;;;;;11.48;3.00;;;14.60;46.50;;;;;;5014631;28;20024;-56
2021/11/29 12:16:34;;;;;;;8.15;3.05;;;14.50;46.70;;;;;;5014638;28;20029;-50
2021/11/29 12:19:00;;;;;;;8.50;2.63;;;14.30;47.20;;;;;;5032593;28;20018;-50
2021/11/29 12:21:45;;;;;;;15.27;3.88;;;14.30;46.80;;;;;;5032362;28;20196;-49
2021/11/29 12:24:16;;;;;;;9.18;2.88;;;14.00;47.50;;;;;;5032279;28;20017;-49
2021/11/29 12:26:48;;;;;;;6.82;2.25;;;14.30;47.40;;;;;;5014571;28;20158;-52
2021/11/29 12:29:20;;;;;;;6.78;1.80;;;14.10;47.20;;;;;;5032786;28;20335;-49
2021/11/29 12:32:09;;;;;;;5.15;1.70;;;14.00;47.60;;;;;;5032629;28;20131;-52
2021/11/29 12:34:59;;;;;;;6.78;2.05;;;14.00;47.60;;;;;;5033390;28;20010;-54
2021/11/29 12:37:33;;;;;;;10.02;2.05;;;14.20;47.50;;;;;;5015502;28;20020;-50
2021/11/29 12:40:14;;;;;;;5.68;1.55;;;14.10;47.60;;;;;;5033774;28;20010;-50
2021/11/29 12:42:42;;;;;;;6.70;1.90;;;14.10;48.10;;;;;;5034555;28;20101;-48
2021/11/29 12:45:08;;;;;;;11.15;2.15;;;14.20;48.50;;;;;;5033357;28;20025;-49
2021/11/29 12:47:58;;;;;;;8.30;1.70;;;14.10;48.20;;;;;;5034800;28;20341;-53